createdAt,value
2022-09-27T00:02:39.879Z,11.22
2022-09-27T00:05:24.768Z,11.24
2022-09-27T00:08:09.900Z,11.23
2022-09-27T00:11:32.330Z,11.23
2022-09-27T00:14:17.697Z,11.21
2022-09-27T00:17:02.453Z,11.21
2022-09-27T00:19:47.283Z,11.21
2022-09-27T00:22:32.455Z,11.21
2022-09-27T00:25:17.760Z,11.21
2022-09-27T00:28:02.675Z,11.21
2022-09-27T00:30:47.712Z,11.19
2022-09-27T00:33:32.676Z,11.18
2022-09-27T00:36:19.531Z,11.21
2022-09-27T00:39:04.173Z,11.20
2022-09-27T00:41:49.566Z,11.21
2022-09-27T00:44:38.023Z,11.20
2022-09-27T00:47:25.571Z,11.19
2022-09-27T00:50:24.535Z,11.19
2022-09-27T00:53:17.451Z,11.18
2022-09-27T00:56:09.840Z,11.19
2022-09-27T00:59:01.378Z,11.17
2022-09-27T01:01:48.602Z,11.20
2022-09-27T01:04:37.027Z,11.20
2022-09-27T01:07:21.915Z,11.19
2022-09-27T01:10:08.231Z,11.20
2022-09-27T01:13:03.291Z,11.21
2022-09-27T01:16:17.630Z,11.22
2022-09-27T01:19:20.856Z,11.22
2022-09-27T01:22:12.658Z,11.21
2022-09-27T01:25:22.249Z,11.21
2022-09-27T01:28:23.897Z,11.21
2022-09-27T01:31:15.251Z,11.22
2022-09-27T01:34:07.482Z,11.19
2022-09-27T01:37:04.171Z,11.15
2022-09-27T01:39:52.332Z,11.19
2022-09-27T01:43:03.719Z,11.16
2022-09-27T01:45:55.311Z,11.16
2022-09-27T01:49:03.484Z,11.18
2022-09-27T01:51:54.817Z,11.18
2022-09-27T01:54:47.087Z,11.17
2022-09-27T01:58:06.059Z,11.16
2022-09-27T02:00:53.919Z,11.16
2022-09-27T02:03:45.976Z,11.16
2022-09-27T02:07:29.351Z,11.13
2022-09-27T02:10:24.057Z,11.10
2022-09-27T02:13:25.650Z,11.12
2022-09-27T02:17:14.223Z,11.13
2022-09-27T02:20:08.385Z,11.13
2022-09-27T02:23:22.414Z,11.10
2022-09-27T02:26:24.050Z,11.09
2022-09-27T02:29:24.376Z,11.08
2022-09-27T02:32:11.721Z,11.08
2022-09-27T02:35:00.517Z,11.05
2022-09-27T02:37:46.588Z,11.02
2022-09-27T02:40:35.920Z,10.99
2022-09-27T02:43:27.301Z,10.92
2022-09-27T02:46:27.491Z,10.88
2022-09-27T02:49:12.917Z,10.86
2022-09-27T02:52:34.239Z,10.83
2022-09-27T02:55:23.228Z,10.79
2022-09-27T02:58:51.469Z,10.72
2022-09-27T03:01:54.783Z,10.72
2022-09-27T03:04:57.184Z,10.75
2022-09-27T03:07:42.821Z,10.80
2022-09-27T03:10:29.935Z,10.83
2022-09-27T03:13:14.564Z,10.86
2022-09-27T03:16:01.683Z,10.88
2022-09-27T03:19:05.826Z,10.89
2022-09-27T03:22:09.369Z,10.87
2022-09-27T03:24:54.729Z,10.85
2022-09-27T03:27:39.926Z,10.81
2022-09-27T03:30:24.805Z,10.78
2022-09-27T03:33:09.832Z,10.78
2022-09-27T03:35:54.666Z,10.77
2022-09-27T03:38:39.861Z,10.80
2022-09-27T03:41:28.993Z,10.81
2022-09-27T03:44:13.700Z,10.81
2022-09-27T03:46:59.520Z,10.81
2022-09-27T03:49:44.410Z,10.76
2022-09-27T03:52:29.626Z,10.79
2022-09-27T03:55:14.735Z,10.74
2022-09-27T03:57:59.655Z,10.70
2022-09-27T04:00:46.311Z,10.65
2022-09-27T04:03:31.178Z,10.59
2022-09-27T04:06:26.503Z,10.52
2022-09-27T04:09:10.986Z,10.42
2022-09-27T04:12:13.925Z,10.33
2022-09-27T04:14:59.480Z,10.29
2022-09-27T04:18:05.588Z,10.28
2022-09-27T04:20:50.248Z,10.28
2022-09-27T04:23:36.103Z,10.30
2022-09-27T04:26:21.647Z,10.33
2022-09-27T04:29:09.940Z,10.32
2022-09-27T04:31:58.613Z,10.26
2022-09-27T04:35:29.955Z,10.20
2022-09-27T04:38:15.396Z,10.15
2022-09-27T04:41:03.338Z,10.13
2022-09-27T04:43:56.768Z,10.17
2022-09-27T04:46:43.469Z,10.19
2022-09-27T04:49:29.534Z,10.23
2022-09-27T04:52:14.862Z,10.26
2022-09-27T04:55:00.452Z,10.32
2022-09-27T04:57:48.852Z,10.38
2022-09-27T05:00:33.855Z,10.45
2022-09-27T05:03:34.875Z,10.57
2022-09-27T05:06:27.939Z,10.65
2022-09-27T05:09:16.349Z,10.73
2022-09-27T05:12:08.908Z,10.86
2022-09-27T05:15:03.034Z,10.96
2022-09-27T05:17:56.275Z,11.09
2022-09-27T05:21:10.815Z,11.25
2022-09-27T05:24:02.022Z,11.38
2022-09-27T05:26:47.380Z,11.56
2022-09-27T05:29:33.132Z,11.73
2022-09-27T05:32:29.223Z,11.90
2022-09-27T05:35:45.758Z,12.15
2022-09-27T05:38:33.202Z,12.40
2022-09-27T05:41:19.468Z,12.80
2022-09-27T05:44:06.019Z,13.11
2022-09-27T05:46:56.730Z,13.25
2022-09-27T05:49:41.883Z,12.97
2022-09-27T05:52:30.433Z,13.17
2022-09-27T05:55:15.757Z,13.14
2022-09-27T05:58:05.586Z,13.18
2022-09-27T06:01:02.089Z,13.19
2022-09-27T06:04:24.594Z,13.35
2022-09-27T06:08:08.868Z,13.42
2022-09-27T06:11:12.079Z,13.39
2022-09-27T06:14:01.244Z,13.53
2022-09-27T06:16:57.495Z,13.71
2022-09-27T06:19:47.683Z,13.84
2022-09-27T06:26:07.526Z,14.45
2022-09-27T06:29:19.306Z,14.63
2022-09-27T06:32:10.597Z,14.70
2022-09-27T06:35:44.920Z,14.59
2022-09-27T06:38:30.153Z,14.49
2022-09-27T06:41:29.628Z,14.39
2022-09-27T06:44:54.767Z,14.21
2022-09-27T06:48:01.809Z,13.98
2022-09-27T06:51:19.318Z,13.87
2022-09-27T06:54:04.441Z,13.83
2022-09-27T06:56:50.023Z,13.86
2022-09-27T06:59:53.959Z,13.93
2022-09-27T07:03:01.209Z,14.02
2022-09-27T07:06:02.660Z,14.17
2022-09-27T07:09:11.709Z,14.33
2022-09-27T07:12:00.630Z,14.34
2022-09-27T07:15:02.467Z,14.40
2022-09-27T07:18:20.077Z,14.40
2022-09-27T07:21:20.560Z,14.54
2022-09-27T07:24:20.500Z,14.50
2022-09-27T07:27:30.131Z,14.50
2022-09-27T07:30:21.160Z,14.47
2022-09-27T07:34:06.096Z,14.23
2022-09-27T07:37:29.092Z,14.05
2022-09-27T07:40:37.730Z,14.08
2022-09-27T07:47:58.298Z,14.37
2022-09-27T07:51:15.202Z,14.64
2022-09-27T07:54:17.660Z,14.91
2022-09-27T07:57:41.675Z,15.05
2022-09-27T08:00:55.644Z,14.88
2022-09-27T08:04:14.701Z,14.69
2022-09-27T08:11:23.937Z,14.75
2022-09-27T08:14:15.657Z,14.74
2022-09-27T08:17:04.322Z,14.71
2022-09-27T08:20:09.465Z,14.71
2022-09-27T08:23:14.368Z,14.74
2022-09-27T08:26:01.654Z,14.84
2022-09-27T08:29:02.171Z,14.79
2022-09-27T08:31:51.341Z,14.79
2022-09-27T08:34:46.089Z,14.78
2022-09-27T08:37:30.851Z,14.75
2022-09-27T08:40:17.095Z,14.74
2022-09-27T08:43:36.779Z,14.74
2022-09-27T08:46:35.756Z,14.77
2022-09-27T08:49:40.418Z,14.75
2022-09-27T08:52:58.465Z,14.75
2022-09-27T08:55:53.803Z,14.89
2022-09-27T08:59:13.102Z,15.10
2022-09-27T09:01:59.033Z,15.43
2022-09-27T09:05:30.313Z,15.76
2022-09-27T09:08:48.711Z,16.02
2022-09-27T09:12:39.242Z,16.31
2022-09-27T09:16:06.737Z,16.60
2022-09-27T09:19:44.112Z,16.81
2022-09-27T09:23:06.490Z,16.99
2022-09-27T09:26:27.231Z,16.73
2022-09-27T09:29:29.409Z,16.91
2022-09-27T09:32:53.280Z,17.18
2022-09-27T09:35:54.608Z,17.32
2022-09-27T09:38:48.537Z,17.31
2022-09-27T09:41:45.833Z,17.17
2022-09-27T09:44:38.647Z,17.15
2022-09-27T09:47:32.169Z,17.33
2022-09-27T09:50:26.374Z,17.77
2022-09-27T09:53:38.941Z,18.29
2022-09-27T09:56:36.766Z,19.23
2022-09-27T09:59:59.001Z,19.53
2022-09-27T10:02:49.031Z,19.66
2022-09-27T10:05:45.466Z,19.88
2022-09-27T10:08:35.624Z,20.08
2022-09-27T10:12:15.907Z,20.54
2022-09-27T10:16:05.488Z,21.01
2022-09-27T10:18:59.792Z,21.02
2022-09-27T10:21:49.416Z,20.48
2022-09-27T10:24:58.039Z,19.84
2022-09-27T10:28:09.236Z,19.38
2022-09-27T10:30:57.847Z,18.89
2022-09-27T10:34:29.469Z,18.36
2022-09-27T10:37:24.619Z,17.94
2022-09-27T10:40:33.572Z,17.65
2022-09-27T10:43:29.879Z,17.51
2022-09-27T10:46:26.244Z,17.25
2022-09-27T10:49:27.814Z,16.97
2022-09-27T10:52:43.796Z,16.85
2022-09-27T10:55:35.536Z,16.80
2022-09-27T10:58:32.759Z,16.80
2022-09-27T11:01:18.509Z,16.81
2022-09-27T11:04:34.022Z,16.67
2022-09-27T11:07:52.150Z,16.65
2022-09-27T11:10:40.801Z,16.75
2022-09-27T11:13:31.688Z,16.80
2022-09-27T11:16:35.237Z,16.70
2022-09-27T11:19:30.269Z,16.71
2022-09-27T11:22:35.187Z,16.62
2022-09-27T11:25:42.724Z,16.41
2022-09-27T11:28:49.307Z,16.12
2022-09-27T11:32:04.329Z,15.94
2022-09-27T11:35:17.206Z,15.78
2022-09-27T11:38:07.850Z,15.80
2022-09-27T11:41:11.455Z,15.89
2022-09-27T11:44:17.829Z,15.81
2022-09-27T11:47:15.493Z,15.81
2022-09-27T11:50:03.702Z,15.69
2022-09-27T11:52:58.407Z,15.55
2022-09-27T11:56:06.758Z,15.55
2022-09-27T11:59:40.987Z,15.57
2022-09-27T12:03:05.471Z,15.72
2022-09-27T12:06:13.872Z,15.75
2022-09-27T12:09:07.350Z,15.79
2022-09-27T12:11:58.155Z,15.89
2022-09-27T12:14:52.977Z,16.00
2022-09-27T12:17:42.234Z,16.14
2022-09-27T12:20:34.522Z,16.24
2022-09-27T12:23:36.399Z,16.22
2022-09-27T12:26:40.075Z,16.30
2022-09-27T12:29:31.043Z,16.49
2022-09-27T12:32:19.276Z,16.71
2022-09-27T12:35:28.977Z,16.84
2022-09-27T12:38:38.982Z,16.89
2022-09-27T12:41:25.144Z,16.85
2022-09-27T12:44:24.488Z,16.73
2022-09-27T12:47:30.696Z,16.59
2022-09-27T12:50:25.986Z,16.33
2022-09-27T12:54:00.823Z,16.20
2022-09-27T12:56:56.839Z,16.23
2022-09-27T13:00:03.513Z,16.18
2022-09-27T13:03:15.755Z,16.07
2022-09-27T13:06:52.148Z,16.13
2022-09-27T13:09:59.056Z,16.40
2022-09-27T13:12:51.562Z,16.58
2022-09-27T13:15:39.035Z,16.77
2022-09-27T13:18:36.097Z,16.75
2022-09-27T13:21:50.894Z,16.72
2022-09-27T13:25:59.622Z,16.62
2022-09-27T13:29:02.655Z,16.84
2022-09-27T13:31:57.177Z,17.05
2022-09-27T13:35:25.718Z,16.88
2022-09-27T13:38:25.169Z,16.86
2022-09-27T13:41:18.233Z,16.85
2022-09-27T13:44:33.138Z,16.73
2022-09-27T13:47:38.714Z,16.76
2022-09-27T13:50:37.147Z,16.81
2022-09-27T13:53:39.355Z,16.70
2022-09-27T13:56:36.257Z,16.27
2022-09-27T13:59:52.745Z,16.01
2022-09-27T14:03:00.147Z,15.85
2022-09-27T14:05:56.449Z,15.88
2022-09-27T14:08:56.216Z,16.08
2022-09-27T14:11:48.166Z,16.17
2022-09-27T14:14:34.429Z,16.23
2022-09-27T14:17:19.768Z,16.22
2022-09-27T14:20:08.016Z,16.19
2022-09-27T14:22:54.474Z,16.03
2022-09-27T14:25:51.510Z,15.94
2022-09-27T14:28:40.909Z,15.77
2022-09-27T14:31:32.268Z,15.54
2022-09-27T14:34:31.058Z,15.44
2022-09-27T14:37:23.382Z,15.25
2022-09-27T14:40:21.814Z,15.18
2022-09-27T14:43:11.479Z,15.14
2022-09-27T14:46:01.939Z,15.07
2022-09-27T14:48:47.253Z,15.01
2022-09-27T14:51:32.303Z,15.00
2022-09-27T14:54:22.683Z,15.05
2022-09-27T14:57:07.588Z,15.03
2022-09-27T14:59:52.571Z,14.97
2022-09-27T15:02:40.876Z,14.92
2022-09-27T15:05:31.578Z,14.85
2022-09-27T15:08:17.636Z,14.78
2022-09-27T15:11:07.059Z,14.67
2022-09-27T15:13:52.844Z,14.52
2022-09-27T15:16:38.017Z,14.37
2022-09-27T15:19:26.437Z,14.23
2022-09-27T15:22:45.327Z,14.10
2022-09-27T15:25:37.556Z,13.96
2022-09-27T15:28:22.643Z,13.81
2022-09-27T15:31:07.839Z,13.69
2022-09-27T15:33:55.845Z,13.60
2022-09-27T15:36:46.946Z,13.49
2022-09-27T15:39:50.088Z,13.40
2022-09-27T15:42:56.574Z,13.33
2022-09-27T15:45:49.707Z,13.24
2022-09-27T15:48:36.944Z,13.16
2022-09-27T15:51:42.427Z,13.07
2022-09-27T15:54:29.743Z,13.02
2022-09-27T15:57:14.635Z,12.96
2022-09-27T15:59:59.936Z,12.89
2022-09-27T16:02:45.210Z,12.87
2022-09-27T16:05:32.607Z,12.85
2022-09-27T16:08:17.746Z,12.83
2022-09-27T16:11:05.026Z,12.80
2022-09-27T16:13:52.185Z,12.79
2022-09-27T16:16:38.854Z,12.75
2022-09-27T16:19:23.427Z,12.74
2022-09-27T16:22:08.607Z,12.72
2022-09-27T16:24:53.476Z,12.70
2022-09-27T16:27:38.855Z,12.68
2022-09-27T16:30:23.724Z,12.65
2022-09-27T16:33:09.092Z,12.63
2022-09-27T16:35:55.178Z,12.60
2022-09-27T16:38:42.247Z,12.55
2022-09-27T16:41:27.506Z,12.55
2022-09-27T16:44:16.619Z,12.54
2022-09-27T16:47:06.884Z,12.49
2022-09-27T16:50:10.290Z,12.46
2022-09-27T16:52:55.244Z,12.43
2022-09-27T16:55:40.247Z,12.43
2022-09-27T16:58:25.538Z,12.40
2022-09-27T17:01:10.423Z,12.37
2022-09-27T17:03:57.641Z,12.37
2022-09-27T17:06:42.492Z,12.31
2022-09-27T17:09:27.227Z,12.31
2022-09-27T17:12:13.162Z,12.29
2022-09-27T17:14:58.238Z,12.27
2022-09-27T17:17:44.574Z,12.24
2022-09-27T17:20:29.510Z,12.19
2022-09-27T17:23:14.447Z,12.13
2022-09-27T17:26:13.682Z,12.11
2022-09-27T17:29:00.301Z,12.10
2022-09-27T17:31:45.698Z,12.07
2022-09-27T17:34:31.550Z,12.04
2022-09-27T17:37:17.166Z,12.03
2022-09-27T17:40:03.549Z,12.01
2022-09-27T17:42:48.449Z,11.99
2022-09-27T17:45:33.971Z,11.98
2022-09-27T17:48:37.382Z,11.95
2022-09-27T17:51:22.676Z,11.93
2022-09-27T17:54:09.898Z,11.91
2022-09-27T17:56:55.782Z,11.89
2022-09-27T17:59:40.805Z,11.88
2022-09-27T18:02:26.178Z,11.85
2022-09-27T18:05:11.052Z,11.83
2022-09-27T18:07:55.798Z,11.79
2022-09-27T18:10:41.741Z,11.77
2022-09-27T18:13:26.300Z,11.76
2022-09-27T18:16:16.573Z,11.73
2022-09-27T18:19:04.790Z,11.67
2022-09-27T18:21:50.047Z,11.63
2022-09-27T18:24:34.717Z,11.56
2022-09-27T18:27:20.790Z,11.52
2022-09-27T18:30:06.313Z,11.47
2022-09-27T18:32:52.409Z,11.42
2022-09-27T18:35:37.369Z,11.40
2022-09-27T18:38:22.427Z,11.37
2022-09-27T18:41:09.249Z,11.36
2022-09-27T18:43:56.527Z,11.29
2022-09-27T18:46:41.377Z,11.21
2022-09-27T18:49:30.615Z,11.14
2022-09-27T18:52:18.652Z,11.05
2022-09-27T18:55:03.652Z,10.98
2022-09-27T18:57:48.537Z,10.84
2022-09-27T19:00:33.652Z,10.71
2022-09-27T19:03:18.685Z,10.60
2022-09-27T19:06:06.704Z,10.54
2022-09-27T19:08:57.922Z,10.48
2022-09-27T19:11:42.620Z,10.43
2022-09-27T19:14:28.859Z,10.36
2022-09-27T19:17:13.532Z,10.28
2022-09-27T19:19:58.697Z,10.25
2022-09-27T19:22:43.614Z,10.23
2022-09-27T19:25:28.553Z,10.17
2022-09-27T19:28:13.470Z,10.17
2022-09-27T19:30:58.710Z,10.15
2022-09-27T19:33:43.675Z,10.11
2022-09-27T19:36:28.826Z,10.12
2022-09-27T19:39:14.428Z,10.09
2022-09-27T19:41:58.979Z,10.18
2022-09-27T19:44:44.748Z,10.29
2022-09-27T19:47:29.586Z,10.43
2022-09-27T19:50:14.660Z,10.56
2022-09-27T19:52:59.384Z,10.69
2022-09-27T19:55:44.256Z,10.80
2022-09-27T19:58:30.837Z,10.91
2022-09-27T20:01:19.503Z,10.99
2022-09-27T20:04:04.458Z,11.00
2022-09-27T20:06:49.429Z,10.96
2022-09-27T20:09:36.379Z,10.90
2022-09-27T20:12:23.048Z,10.87
2022-09-27T20:15:08.227Z,10.88
2022-09-27T20:17:52.833Z,10.90
2022-09-27T20:20:37.885Z,10.94
2022-09-27T20:23:24.467Z,11.00
2022-09-27T20:26:14.666Z,11.05
2022-09-27T20:29:00.806Z,11.05
2022-09-27T20:32:09.096Z,11.09
2022-09-27T20:34:50.714Z,11.12
2022-09-27T20:37:35.831Z,11.14
2022-09-27T20:40:20.776Z,11.10
2022-09-27T20:43:05.729Z,11.14
2022-09-27T20:45:50.676Z,11.15
2022-09-27T20:48:35.610Z,11.14
2022-09-27T20:51:21.125Z,11.12
2022-09-27T20:54:07.685Z,11.13
2022-09-27T20:56:52.405Z,11.10
2022-09-27T20:59:37.347Z,11.11
2022-09-27T21:02:22.599Z,11.11
2022-09-27T21:05:08.308Z,11.04
2022-09-27T21:07:53.985Z,10.97
2022-09-27T21:10:38.655Z,10.93
2022-09-27T21:13:23.483Z,10.92
2022-09-27T21:16:14.161Z,10.93
2022-09-27T21:18:59.880Z,10.92
2022-09-27T21:21:44.876Z,10.86
2022-09-27T21:24:29.746Z,10.75
2022-09-27T21:27:14.678Z,10.59
2022-09-27T21:30:00.603Z,10.43
2022-09-27T21:32:45.286Z,10.27
2022-09-27T21:35:30.170Z,10.10
2022-09-27T21:38:15.405Z,9.98
2022-09-27T21:41:02.826Z,9.88
2022-09-27T21:43:48.622Z,9.84
2022-09-27T21:46:33.812Z,9.99
2022-09-27T21:49:18.522Z,10.05
2022-09-27T21:52:03.559Z,10.04
2022-09-27T21:54:48.583Z,10.09
2022-09-27T21:57:33.615Z,10.11
2022-09-27T22:00:18.503Z,10.14
2022-09-27T22:03:03.592Z,10.27
2022-09-27T22:05:50.366Z,10.41
2022-09-27T22:08:35.566Z,10.52
2022-09-27T22:11:22.766Z,10.60
2022-09-27T22:14:09.076Z,10.66
2022-09-27T22:16:53.496Z,10.72
2022-09-27T22:19:38.237Z,10.81
2022-09-27T22:22:23.129Z,10.89
2022-09-27T22:25:08.192Z,10.91
2022-09-27T22:27:52.929Z,10.98
2022-09-27T22:30:38.035Z,11.01
2022-09-27T22:33:22.834Z,11.07
2022-09-27T22:36:08.248Z,11.10
2022-09-27T22:38:53.943Z,11.14
2022-09-27T22:41:38.897Z,11.15
2022-09-27T22:44:23.919Z,11.18
2022-09-27T22:47:08.774Z,11.22
2022-09-27T22:49:54.515Z,11.23
2022-09-27T22:52:39.079Z,11.21
2022-09-27T22:55:24.098Z,11.21
2022-09-27T22:58:08.996Z,11.22
2022-09-27T23:00:54.465Z,11.21
2022-09-27T23:03:39.287Z,11.21
2022-09-27T23:06:24.115Z,11.21
2022-09-27T23:09:09.728Z,11.21
2022-09-27T23:11:55.079Z,11.20
2022-09-27T23:14:42.643Z,11.17
2022-09-27T23:17:27.687Z,11.15
2022-09-27T23:20:13.969Z,11.16
2022-09-27T23:22:58.619Z,11.14
2022-09-27T23:25:43.480Z,11.15
2022-09-27T23:28:30.264Z,11.15
2022-09-27T23:31:16.249Z,11.13
2022-09-27T23:34:03.042Z,11.13
2022-09-27T23:36:47.952Z,11.13
2022-09-27T23:39:33.408Z,11.12
2022-09-27T23:42:18.082Z,11.14
2022-09-27T23:45:03.672Z,11.13
2022-09-27T23:47:48.236Z,11.11
2022-09-27T23:50:33.287Z,11.12
2022-09-27T23:53:19.808Z,11.14
2022-09-27T23:56:05.984Z,11.16
2022-09-27T23:58:51.077Z,11.17
